Observations for BOSCOMBE DOWN, United Kingdom (EGDM)

EGDM 140750Z 26006KT 9999 FEW012 BKN035 17/14 Q1017 BLU 
EGDM 140650Z AUTO 27004KT 9999 BKN042/// 17/15 Q1016
EGDM 140550Z AUTO 24004KT 9999 BKN042/// 15/14 Q1016
EGDM 140450Z AUTO 21003KT 9999 SCT010/// BKN037/// 14/13 Q1015  
EGDM 140350Z AUTO 20002KT 9999 FEW026/// BKN041/// 13/12 Q1015  
EGDM 140250Z AUTO 31002KT 9999 SCT230/// 12/12 Q1015
EGDM 140150Z AUTO 29003KT 9999 FEW240/// 13/12 Q1014
EGDM 140050Z AUTO 30005KT 9999 NCD 13/12 Q1014  
EGDM 132350Z AUTO 29006KT 9999 NCD 14/12 Q1014  
EGDM 132250Z AUTO 30008KT 9999 NCD 15/12 Q1013  
EGDM 132150Z AUTO 29006KT 9999 NCD 16/14 Q1013  
EGDM 132050Z AUTO 29006KT 9999 NCD 17/13 Q1012  
EGDM 131950Z AUTO 31012KT 9999 FEW027/// SCT060/// 19/13 Q1011  
EGDM 131850Z AUTO 30013KT 9999 BKN050/// 20/14 Q1010
EGDM 131750Z AUTO 29015KT 9999 BKN027/// SCT070/// 21/15 Q1009  
EGDM 131650Z 28011KT 9999 FEW035 BKN060 22/15 Q1009 BLU 
EGDM 131550Z 30010KT 9999 FEW034 BKN060 23/14 Q1009 BLU 
EGDM 131450Z 31009KT 9999 FEW033 BKN060 22/14 Q1008 BLU 
EGDM 131350Z 26010KT 9999 SCT032 SCT060 22/14 Q1008 BLU 
EGDM 131250Z 27010KT 9999 SCT028 SCT050 21/14 Q1008 BLU 
EGDM 131150Z 29011KT 9999 SCT030 SCT047 22/13 Q1008 BLU 
EGDM 131050Z 27008KT 9999 SCT025 BKN048 20/13 Q1008 BLU 
EGDM 130950Z 29008KT 9999 SCT017 BKN046 19/15 Q1008 WHT 
EGDM 130850Z 30008KT 9999 FEW013 BKN042 18/17 Q1007 BLU 
EGDM 130750Z 30007KT 9999 SCT009 BKN035 16/16 Q1007 GRN